Milbridge, ME (04658)

12:33 PM EST on January 17, 2017 (GMT -0500)
MD1607 | | Change Station
Active Advisory: Small Craft Advisory Active Notice: Public Information Statement

Elev 62 ft 44.50 °N, 67.90 °W | Updated 16 minutes ago

Clear
Clear
35.0 °F
Feels Like 29 °F
N
7.0
Wind Variable Wind from WNW
Gusts 16.0 mph

Today
High -- | Low -- °F
--% Chance of Precip.
Yesterday
High -- | Low -- °F
Precip. -- in
Pressure 30.26 in
Visibility 10.0 miles
Clouds Clear
Windchill 29 °F
Dew Point 18 °F
Humidity 50%
Rainfall 0.00 in
Snow Depth Not available.
7:03 AM 4:20 PM
Waning Gibbous, 71% visible
METAR KBHB 171556Z AUTO 03011KT 10SM CLR 02/M07 A3024 RMK AO2 SLP245 T00171072 FZRANO
Pressure 30.26 in
Visibility 10.0 miles
Clouds Clear
Windchill 29 °F
Dew Point 18 °F
Humidity 50%
Rainfall 0.00 in
Snow Depth Not available.
7:03 AM 4:20 PM
Waning Gibbous, 71% visible
METAR KBHB 171556Z AUTO 03011KT 10SM CLR 02/M07 A3024 RMK AO2 SLP245 T00171072 FZRANO

Get Your Daily Forecast Email!

Thanks for signing up!

Be on the lookout for a verification email in your inbox.

You'll start receiving the daily forecast at 8 AM.

×

10-Day Weather Forecast

Almanac

Astronomy

Jan. 17, 2017 Rise Set
Actual Time
Civil Twilight
Nautical Twilight
Astronomical Twilight
Moon
Length of Visible Light
Length of Day
Tomorrow will be .
, % of the Moon is Illuminated

Today's Extremes

State Highs State Lows

Community

WunderPhotos

Upload Photos

1,962,540 photos uploaded!

WunderBlog® & News

Nearby

Air Quality

  Air Quality AQ Index Pollutant
Not available.

Snow Depth

Station Depth Elevation

Earthquake Activity

City Distance Mag. Time & Date
Minimum magnitude displayed is 2.5.

Coastal Water Temperatures

Place Temperature

Stations

Nearby Weather Stations

Station Location Temp. Windchill Dew Point Humidity Wind Precip. Elev Updated Type
                   

Watches & Warnings

Small Craft Advisory
Issued: 4:02 AM EST Jan. 17, 2017 – National Weather Service

... Small Craft Advisory in effect from 1 am to 7 PM EST
Wednesday...
... Small Craft Advisory has expired...

The National Weather Service in Caribou has issued a Small Craft
Advisory... which is in effect from 1 am to 7 PM EST Wednesday.

* Winds and seas... northeast winds 10 to 20 kt with gusts up to
30 kt. Seas 3 to 6 feet.

Precautionary/preparedness actions...

A Small Craft Advisory means that wind speeds of 25 to 33 knots
are expected to produce hazardous wave conditions to small craft.
Inexperienced mariners... especially those operating smaller
vessels should avoid navigating in these conditions.